Radiosonde details



Informationen :

Serial : D26020216
Type : Graw DFM
Frequency : 403.010MHz
Launchsite : Tampa Bay Area
Nearest town : Redington Shores, US (25.6km)

Altitude (Max) : 35015m at 2026-08-31 00:57:44
Speed (Max) : 122km/h at altitude 33875m

Average speed : 30km/h
Average ascent rate : 5m/s
Average descent rate : -9m/s
Ascent rate (Max) : 12.2m/s
Descent rate (Max): -39.8m/s

First frame :
ARGUS2 at 2026-08-30 23:13:57 at altitude 1659m (OG: 1617m)
Last frame :
ARGUS2 at 2026-08-31 01:59:31 at altitude 1348m (OG: 1306m)

Flighttime : 2h45m34s
Ascent time : 1h43m47s
Descent time : 1h1m47s
Uptime : -
Killtimer : -

Distance (Straight line distance): 62km

Distance (Route):


Frames : 427


Measurement :

Temperature : 0°C
Humidity : 0%
Pressure : 0hPa


Vertical profile (SkewT) :


Elevation profile :



Receiving stations :


Receiver Frames First received Last received
ARGUS2 427 2026-08-30 23:13:57 2026-08-31 01:59:31

Share per receiver :



All frames :


Receiver Date Latitude Longitude Direction Speed Altitude Climb Temperature Humidity Pressure Voltage Killtimer Uptime BKT XDATA
ARGUS22026-08-31 01:59:3127.68798-83.03669285°24km/h1348m-3.4m/s0°C0%0hPa0V00:00:0000:00:0000:00:00
ARGUS22026-08-31 01:54:5127.68917-83.01919267°22km/h2300m-3.4m/s13.7°C0%0hPa0V00:00:0000:00:0000:00:00
ARGUS22026-08-31 01:54:1227.68952-83.01677257°20km/h2444m-3.7m/s13.1°C0%0hPa0V00:00:0000:00:0000:00:00
ARGUS22026-08-31 01:53:5027.68978-83.01558260°20km/h2523m-3.6m/s12.9°C0%0hPa0V00:00:0000:00:0000:00:00
ARGUS22026-08-31 01:53:3027.68997-83.01448259°20km/h2601m-3.8m/s12.5°C0%0hPa0V00:00:0000:00:0000:00:00
ARGUS22026-08-31 01:53:1027.69014-83.01324264°22km/h2683m-3.9m/s12.1°C0%0hPa0V00:00:0000:00:0000:00:00
ARGUS22026-08-31 01:52:4927.69030-83.01213260°20km/h2763m-3.9m/s11.6°C0%0hPa0V00:00:0000:00:0000:00:00
ARGUS22026-08-31 01:52:2927.69048-83.01089261°20km/h2845m-3.9m/s11.0°C0%0hPa0V00:00:0000:00:0000:00:00
ARGUS22026-08-31 01:52:0827.69064-83.00976260°20km/h2924m-4.1m/s10.4°C0%0hPa0V00:00:0000:00:0000:00:00
ARGUS22026-08-31 01:51:4827.69089-83.00884245°13km/h3011m-4.1m/s10.1°C0%0hPa0V00:00:0000:00:0000:00:00
ARGUS22026-08-31 01:51:2727.69117-83.00812251°16km/h3095m-4.0m/s9.7°C0%0hPa0V00:00:0000:00:0000:00:00
ARGUS22026-08-31 01:51:0627.69137-83.00729258°13km/h3182m-4.2m/s9.6°C0%0hPa0V00:00:0000:00:0000:00:00
ARGUS22026-08-31 01:50:4627.69162-83.00653250°15km/h3265m-4.2m/s9.4°C0%0hPa0V00:00:0000:00:0000:00:00
ARGUS22026-08-31 01:50:2627.69188-83.00564258°13km/h3352m-4.0m/s8.5°C0%0hPa0V00:00:0000:00:0000:00:00
ARGUS22026-08-31 01:50:0527.69202-83.00491258°11km/h3437m-4.2m/s8.0°C0%0hPa0V00:00:0000:00:0000:00:00
ARGUS22026-08-31 01:49:4527.69215-83.00448226°5km/h3525m-4.2m/s7.5°C0%0hPa0V00:00:0000:00:0000:00:00
ARGUS22026-08-31 01:49:2327.69242-83.00419218°9km/h3614m-4.2m/s7.2°C0%0hPa0V00:00:0000:00:0000:00:00
ARGUS22026-08-31 01:49:0327.69293-83.00390206°13km/h3697m-4.2m/s6.8°C0%0hPa0V00:00:0000:00:0000:00:00
ARGUS22026-08-31 01:48:4227.69343-83.00362213°11km/h3786m-4.4m/s6.7°C0%0hPa0V00:00:0000:00:0000:00:00
ARGUS22026-08-31 01:48:2227.69390-83.00334197°13km/h3873m-4.3m/s6.2°C0%0hPa0V00:00:0000:00:0000:00:00
ARGUS22026-08-31 01:48:0127.69448-83.00316198°13km/h3968m-4.4m/s5.4°C0%0hPa0V00:00:0000:00:0000:00:00
ARGUS22026-08-31 01:47:4127.69505-83.00292189°13km/h4058m-4.3m/s4.7°C0%0hPa0V00:00:0000:00:0000:00:00
ARGUS22026-08-31 01:47:2127.69567-83.00269194°11km/h4150m-4.4m/s4.1°C0%0hPa0V00:00:0000:00:0000:00:00
ARGUS22026-08-31 01:46:5927.69617-83.00244218°7km/h4240m-3.9m/s3.2°C0%0hPa0V00:00:0000:00:0000:00:00
ARGUS22026-08-31 01:46:3827.69649-83.00220221°7km/h4329m-4.2m/s2.5°C0%0hPa0V00:00:0000:00:0000:00:00
ARGUS22026-08-31 01:46:1827.69683-83.00202196°9km/h4421m-4.3m/s1.8°C0%0hPa0V00:00:0000:00:0000:00:00
ARGUS22026-08-31 01:45:5727.69726-83.00196184°9km/h4508m-4.5m/s1.1°C0%0hPa0V00:00:0000:00:0000:00:00
ARGUS22026-08-31 01:45:3627.69762-83.00182203°5km/h4603m-4.4m/s0.8°C0%0hPa0V00:00:0000:00:0000:00:00
ARGUS22026-08-31 01:45:1627.69788-83.00175186°5km/h4700m-4.8m/s0.4°C0%0hPa0V00:00:0000:00:0000:00:00
ARGUS22026-08-31 01:44:5527.69823-83.00184166°7km/h4793m-4.7m/s-0.2°C0%0hPa0V00:00:0000:00:0000:00:00
ARGUS22026-08-31 01:44:3527.69853-83.00191181°4km/h4891m-4.6m/s-0.7°C0%0hPa0V00:00:0000:00:0000:00:00
ARGUS22026-08-31 01:44:1427.69861-83.0020593°4km/h4983m-4.6m/s-1.1°C0%0hPa0V00:00:0000:00:0000:00:00
ARGUS22026-08-31 01:43:5427.69845-83.0024468°9km/h5082m-4.5m/s-2.0°C0%0hPa0V00:00:0000:00:0000:00:00
ARGUS22026-08-31 01:43:3327.69825-83.0027545°7km/h5176m-4.7m/s-2.4°C0%0hPa0V00:00:0000:00:0000:00:00
ARGUS22026-08-31 01:43:1327.69781-83.0031232°11km/h5278m-4.7m/s-2.7°C0%0hPa0V00:00:0000:00:0000:00:00
ARGUS22026-08-31 01:42:5227.69733-83.0034036°9km/h5374m-4.8m/s-3.1°C0%0hPa0V00:00:0000:00:0000:00:00
ARGUS22026-08-31 01:42:3127.69699-83.0036225°5km/h5478m-4.9m/s-3.6°C0%0hPa0V00:00:0000:00:0000:00:00
ARGUS22026-08-31 01:42:1127.69665-83.0038037°11km/h5583m-4.9m/s-3.9°C0%0hPa0V00:00:0000:00:0000:00:00
ARGUS22026-08-31 01:41:5027.69618-83.0041348°9km/h5688m-5.1m/s-4.7°C0%0hPa0V00:00:0000:00:0000:00:00
ARGUS22026-08-31 01:41:3027.69589-83.0044855°7km/h5796m-5.2m/s-5.5°C0%0hPa0V00:00:0000:00:0000:00:00
ARGUS22026-08-31 01:41:0927.69571-83.0047932°5km/h5897m-4.9m/s-6.0°C0%0hPa0V00:00:0000:00:0000:00:00
ARGUS22026-08-31 01:40:4827.69557-83.0050689°7km/h6004m-5.1m/s-6.3°C0%0hPa0V00:00:0000:00:0000:00:00
ARGUS22026-08-31 01:40:2827.69550-83.0054789°9km/h6107m-5.2m/s-7.0°C0%0hPa0V00:00:0000:00:0000:00:00
ARGUS22026-08-31 01:40:0827.69547-83.0061280°7km/h6219m-5.3m/s-7.6°C0%0hPa0V00:00:0000:00:0000:00:00
ARGUS22026-08-31 01:39:4727.69532-83.0064025°2km/h6325m-5.1m/s-8.3°C0%0hPa0V00:00:0000:00:0000:00:00
ARGUS22026-08-31 01:39:2727.69522-83.006490km/h6436m-5.2m/s-8.9°C0%0hPa0V00:00:0000:00:0000:00:00
ARGUS22026-08-31 01:39:0627.69509-83.006585km/h6540m-5.2m/s-9.6°C0%0hPa0V00:00:0000:00:0000:00:00
ARGUS22026-08-31 01:38:4627.69466-83.0067415°7km/h6650m-5.4m/s-10.1°C0%0hPa0V00:00:0000:00:0000:00:00
ARGUS22026-08-31 01:38:2527.69410-83.0068519°13km/h6755m-5.1m/s-10.7°C0%0hPa0V00:00:0000:00:0000:00:00
ARGUS22026-08-31 01:38:0527.69351-83.0070724°11km/h6864m-5.3m/s-11.3°C0%0hPa0V00:00:0000:00:0000:00:00
ARGUS22026-08-31 01:37:4327.69296-83.0072921°9km/h6975m-5.3m/s-11.9°C0%0hPa0V00:00:0000:00:0000:00:00
ARGUS22026-08-31 01:37:2327.69244-83.0075434°11km/h7081m-5.2m/s-12.6°C0%0hPa0V00:00:0000:00:0000:00:00
ARGUS22026-08-31 01:37:0227.69197-83.0078416°11km/h7195m-5.2m/s-13.3°C0%0hPa0V00:00:0000:00:0000:00:00
ARGUS22026-08-31 01:36:4227.69139-83.0079613km/h7302m-5.4m/s-14.1°C0%0hPa0V00:00:0000:00:0000:00:00
ARGUS22026-08-31 01:36:2127.69065-83.0080413km/h7415m-5.2m/s-14.8°C0%0hPa0V00:00:0000:00:0000:00:00
ARGUS22026-08-31 01:36:0127.68997-83.00804360°15km/h7522m-5.3m/s-15.5°C0%0hPa0V00:00:0000:00:0000:00:00
ARGUS22026-08-31 01:35:4127.68940-83.00808358°7km/h7635m-5.3m/s-16.2°C0%0hPa0V00:00:0000:00:0000:00:00
ARGUS22026-08-31 01:35:2027.68899-83.00799347°9km/h7743m-5.4m/s-16.8°C0%0hPa0V00:00:0000:00:0000:00:00
ARGUS22026-08-31 01:35:0027.68869-83.00778305°7km/h7858m-5.6m/s-17.5°C0%0hPa0V00:00:0000:00:0000:00:00
ARGUS22026-08-31 01:34:3927.68860-83.00732278°9km/h7971m-5.5m/s-18.0°C0%0hPa0V00:00:0000:00:0000:00:00
ARGUS22026-08-31 01:34:1827.68851-83.00684277°5km/h8093m-5.8m/s-19.0°C0%0hPa0V00:00:0000:00:0000:00:00
ARGUS22026-08-31 01:33:3827.68829-83.00638308°4km/h8330m-5.8m/s-20.7°C0%0hPa0V00:00:0000:00:0000:00:00
ARGUS22026-08-31 01:33:1727.68817-83.00623319°5km/h8447m-5.9m/s-21.5°C0%0hPa0V00:00:0000:00:0000:00:00
ARGUS22026-08-31 01:32:5727.68792-83.00608347°9km/h8573m-5.9m/s-22.4°C0%0hPa0V00:00:0000:00:0000:00:00
ARGUS22026-08-31 01:32:3527.68759-83.00598350°5km/h8696m-5.8m/s-23.1°C0%0hPa0V00:00:0000:00:0000:00:00
ARGUS22026-08-31 01:32:1527.68723-83.0060417°11km/h8812m-5.8m/s-23.8°C0%0hPa0V00:00:0000:00:0000:00:00
ARGUS22026-08-31 01:31:5527.68669-83.0061011km/h8939m-6.2m/s-24.6°C0%0hPa0V00:00:0000:00:0000:00:00
ARGUS22026-08-31 01:31:3427.68614-83.0061711km/h9062m-5.9m/s-25.6°C0%0hPa0V00:00:0000:00:0000:00:00
ARGUS22026-08-31 01:31:1327.68565-83.006219km/h9188m-6.1m/s-26.6°C0%0hPa0V00:00:0000:00:0000:00:00
ARGUS22026-08-31 01:30:5327.68529-83.00621358°5km/h9310m-6.1m/s-27.4°C0%0hPa0V00:00:0000:00:0000:00:00
ARGUS22026-08-31 01:30:3227.68495-83.00616345°5km/h9439m-6.3m/s-28.1°C0%0hPa0V00:00:0000:00:0000:00:00
ARGUS22026-08-31 01:30:1227.68461-83.00606342°7km/h9567m-6.2m/s-29.1°C0%0hPa0V00:00:0000:00:0000:00:00
ARGUS22026-08-31 01:29:5127.68431-83.00595343°7km/h9701m-6.5m/s-30.2°C0%0hPa0V00:00:0000:00:0000:00:00
ARGUS22026-08-31 01:29:3227.68408-83.00592361°4km/h9829m-6.7m/s-31.1°C0%0hPa0V00:00:0000:00:0000:00:00
ARGUS22026-08-31 01:29:1127.68382-83.00586325°7km/h9967m-6.6m/s-32.1°C0%0hPa0V00:00:0000:00:0000:00:00
ARGUS22026-08-31 01:28:5027.68349-83.00560320°9km/h10102m-6.7m/s-33.1°C0%0hPa0V00:00:0000:00:0000:00:00
ARGUS22026-08-31 01:28:3027.68319-83.00524310°5km/h10243m-6.8m/s-34.3°C0%0hPa0V00:00:0000:00:0000:00:00
ARGUS22026-08-31 01:28:0927.68293-83.00498332°7km/h10383m-7.0m/s-35.5°C0%0hPa0V00:00:0000:00:0000:00:00
ARGUS22026-08-31 01:27:4927.68255-83.00486342°11km/h10531m-7.1m/s-36.5°C0%0hPa0V00:00:0000:00:0000:00:00
ARGUS22026-08-31 01:27:2727.68203-83.00475353°13km/h10678m-6.9m/s-37.4°C0%0hPa0V00:00:0000:00:0000:00:00
ARGUS22026-08-31 01:27:0727.68145-83.00475358°11km/h10820m-7.2m/s-38.6°C0%0hPa0V00:00:0000:00:0000:00:00
ARGUS22026-08-31 01:26:4627.68086-83.00464347°13km/h10970m-7.2m/s-39.8°C0%0hPa0V00:00:0000:00:0000:00:00
ARGUS22026-08-31 01:26:2627.68027-83.00444343°9km/h11113m-7.0m/s-41.0°C0%0hPa0V00:00:0000:00:0000:00:00
ARGUS22026-08-31 01:26:0527.67972-83.00414327°11km/h11266m-7.2m/s-42.3°C0%0hPa0V00:00:0000:00:0000:00:00
ARGUS22026-08-31 01:25:4427.67919-83.00376338°11km/h11419m-7.3m/s-43.6°C0%0hPa0V00:00:0000:00:0000:00:00
ARGUS22026-08-31 01:25:2327.67866-83.00358341°11km/h11576m-7.5m/s-44.9°C0%0hPa0V00:00:0000:00:0000:00:00
ARGUS22026-08-31 01:25:0227.67815-83.00342337°7km/h11733m-7.7m/s-46.2°C0%0hPa0V00:00:0000:00:0000:00:00
ARGUS22026-08-31 01:24:4027.67768-83.00316317°7km/h11914m-7.8m/s-47.9°C0%0hPa0V00:00:0000:00:0000:00:00
ARGUS22026-08-31 01:21:1527.67427-83.00149315°7km/h13445m-7.9m/s-59.9°C0%0hPa0V00:00:0000:00:0000:00:00
ARGUS22026-08-31 01:20:4927.67385-83.00110306°5km/h13650m-7.8m/s-61.6°C0%0hPa0V00:00:0000:00:0000:00:00
ARGUS22026-08-31 01:20:2927.67340-83.00067329°16km/h13813m-8.4m/s-62.3°C0%0hPa0V00:00:0000:00:0000:00:00
ARGUS22026-08-31 01:20:0827.67283-83.00033327°13km/h14000m-8.6m/s-63.7°C0%0hPa0V00:00:0000:00:0000:00:00
ARGUS22026-08-31 01:19:4327.67227-82.99958296°15km/h14217m-8.8m/s-65.2°C0%0hPa0V00:00:0000:00:0000:00:00
ARGUS22026-08-31 01:19:2127.67209-82.99841275°20km/h14423m-8.9m/s-66.6°C0%0hPa0V00:00:0000:00:0000:00:00
ARGUS22026-08-31 01:18:5327.67225-82.99706266°16km/h14680m-9.0m/s-68.9°C0%0hPa0V00:00:0000:00:0000:00:00
ARGUS22026-08-31 01:18:0827.67219-82.99473295°26km/h15070m-9.4m/s-70.9°C0%0hPa0V00:00:0000:00:0000:00:00
ARGUS22026-08-31 01:17:4127.67144-82.99332305°11km/h15324m-9.5m/s-69.1°C0%0hPa0V00:00:0000:00:0000:00:00
ARGUS22026-08-31 01:17:2027.67081-82.99272341°24km/h15533m-9.6m/s-63.9°C0%0hPa0V00:00:0000:00:0000:00:00
ARGUS22026-08-31 01:16:5827.66982-82.9926713°9km/h15745m-9.7m/s-64.5°C0%0hPa0V00:00:0000:00:0000:00:00
ARGUS22026-08-31 01:16:3827.66929-82.99267340°9km/h15941m-9.7m/s-64.8°C0%0hPa0V00:00:0000:00:0000:00:00
ARGUS22026-08-31 01:16:0627.66905-82.9928785°9km/h16272m-10.2m/s-66.0°C0%0hPa0V00:00:0000:00:0000:00:00
ARGUS22026-08-31 01:15:4327.66923-82.99364132°16km/h16510m-10.6m/s-67.8°C0%0hPa0V00:00:0000:00:0000:00:00
ARGUS22026-08-31 01:15:2227.66991-82.99406159°16km/h16728m-10.8m/s-68.6°C0%0hPa0V00:00:0000:00:0000:00:00
ARGUS22026-08-31 01:15:0027.67081-82.99416195°16km/h16975m-11.3m/s-69.2°C0%0hPa0V00:00:0000:00:0000:00:00
ARGUS22026-08-31 01:14:3427.67095-82.99338304°22km/h17297m-12.0m/s-67.5°C0%0hPa0V00:00:0000:00:0000:00:00
ARGUS22026-08-31 01:14:1327.67034-82.99247322°15km/h17538m-11.9m/s-68.5°C0%0hPa0V00:00:0000:00:0000:00:00
ARGUS22026-08-31 01:13:5127.67023-82.99204254°9km/h17804m-12.0m/s-67.8°C0%0hPa0V00:00:0000:00:0000:00:00
ARGUS22026-08-31 01:13:3027.67015-82.99117239°11km/h18067m-10.8m/s-65.8°C0%0hPa0V00:00:0000:00:0000:00:00
ARGUS22026-08-31 01:13:0927.67062-82.99008240°33km/h18281m-10.8m/s-64.9°C0%0hPa0V00:00:0000:00:0000:00:00
ARGUS22026-08-31 01:12:4827.67085-82.98815281°37km/h18507m-10.7m/s-64.3°C0%0hPa0V00:00:0000:00:0000:00:00
ARGUS22026-08-31 01:12:2827.67002-82.98585298°44km/h18733m-10.8m/s-65.6°C0%0hPa0V00:00:0000:00:0000:00:00
ARGUS22026-08-31 01:12:0627.66952-82.98444277°13km/h18961m-11.1m/s-63.9°C0%0hPa0V00:00:0000:00:0000:00:00
ARGUS22026-08-31 01:11:4427.67019-82.98275239°49km/h19219m-11.3m/s-63.3°C0%0hPa0V00:00:0000:00:0000:00:00
ARGUS22026-08-31 01:11:2327.67132-82.97984261°55km/h19448m-11.5m/s-61.4°C0%0hPa0V00:00:0000:00:0000:00:00
ARGUS22026-08-31 01:10:4227.67064-82.97433298°40km/h19933m-11.9m/s-63.2°C0%0hPa0V00:00:0000:00:0000:00:00
ARGUS22026-08-31 01:10:2027.67012-82.97250273°22km/h20189m-11.6m/s-63.6°C0%0hPa0V00:00:0000:00:0000:00:00
ARGUS22026-08-31 01:09:5927.67031-82.97123246°26km/h20424m-12.1m/s-61.2°C0%0hPa0V00:00:0000:00:0000:00:00
ARGUS22026-08-31 01:09:3727.67156-82.96966226°44km/h20689m-12.2m/s-60.4°C0%0hPa0V00:00:0000:00:0000:00:00
ARGUS22026-08-31 01:09:1627.67325-82.96768229°53km/h20947m-12.4m/s-60.9°C0%0hPa0V00:00:0000:00:0000:00:00
ARGUS22026-08-31 01:08:5627.67482-82.96490249°58km/h21209m-12.4m/s-60.1°C0%0hPa0V00:00:0000:00:0000:00:00
ARGUS22026-08-31 01:08:3627.67553-82.96168257°60km/h21455m-12.9m/s-59.4°C0%0hPa0V00:00:0000:00:0000:00:00
ARGUS22026-08-31 01:08:1427.67588-82.95824266°53km/h21716m-12.3m/s-58.5°C0%0hPa0V00:00:0000:00:0000:00:00
ARGUS22026-08-31 01:07:5327.67686-82.95515254°58km/h21987m-13.2m/s-57.9°C0%0hPa0V00:00:0000:00:0000:00:00
ARGUS22026-08-31 01:07:3327.67762-82.95220256°55km/h22252m-13.1m/s-57.8°C0%0hPa0V00:00:0000:00:0000:00:00
ARGUS22026-08-31 01:07:1327.67801-82.94925262°47km/h22536m-13.6m/s-56.8°C0%0hPa0V00:00:0000:00:0000:00:00
ARGUS22026-08-31 01:06:5227.67834-82.94644256°53km/h22813m-14.0m/s-55.9°C0%0hPa0V00:00:0000:00:0000:00:00
ARGUS22026-08-31 01:06:3227.67870-82.94340273°46km/h23112m-14.7m/s-56.4°C0%0hPa0V00:00:0000:00:0000:00:00
ARGUS22026-08-31 01:06:1127.67859-82.94045287°51km/h23407m-15.3m/s-55.6°C0%0hPa0V00:00:0000:00:0000:00:00
ARGUS22026-08-31 01:05:5027.67833-82.93810269°37km/h23722m-14.9m/s-55.4°C0%0hPa0V00:00:0000:00:0000:00:00
ARGUS22026-08-31 01:05:2927.67895-82.93551261°55km/h24037m-14.9m/s-56.2°C0%0hPa0V00:00:0000:00:0000:00:00
ARGUS22026-08-31 01:05:0827.67906-82.93218261°46km/h24359m-15.3m/s-54.9°C0%0hPa0V00:00:0000:00:0000:00:00
ARGUS22026-08-31 01:04:4727.68006-82.92922259°64km/h24684m-15.8m/s-53.2°C0%0hPa0V00:00:0000:00:0000:00:00
ARGUS22026-08-31 01:04:2727.68014-82.92507270°71km/h25024m-16.1m/s-52.2°C0%0hPa0V00:00:0000:00:0000:00:00
ARGUS22026-08-31 01:04:0627.68023-82.92132263°71km/h25359m-17.0m/s-52.8°C0%0hPa0V00:00:0000:00:0000:00:00
ARGUS22026-08-31 01:03:4627.68058-82.91691266°66km/h25725m-18.0m/s-52.5°C0%0hPa0V00:00:0000:00:0000:00:00
ARGUS22026-08-31 01:03:2527.68074-82.91291268°71km/h26091m-18.7m/s-50.9°C0%0hPa0V00:00:0000:00:0000:00:00
ARGUS22026-08-31 01:02:5927.68132-82.90857265°69km/h26604m-19.4m/s-49.4°C0%0hPa0V00:00:0000:00:0000:00:00
ARGUS22026-08-31 01:02:3727.68138-82.90433276°77km/h27019m-20.0m/s-47.6°C0%0hPa0V00:00:0000:00:0000:00:00
ARGUS22026-08-31 01:02:1027.68100-82.89952257°42km/h27577m-21.1m/s-46.1°C0%0hPa0V00:00:0000:00:0000:00:00
ARGUS22026-08-31 01:01:4927.68176-82.89640261°55km/h28029m-22.3m/s-45.8°C0%0hPa0V00:00:0000:00:0000:00:00
ARGUS22026-08-31 01:01:3027.68223-82.89288279°71km/h28480m-23.2m/s-46.3°C0%0hPa0V00:00:0000:00:0000:00:00
ARGUS22026-08-31 01:01:0827.68116-82.88901301°66km/h28976m-23.9m/s-45.9°C0%0hPa0V00:00:0000:00:0000:00:00
ARGUS22026-08-31 01:00:2727.67857-82.88324273°27km/h29985m-25.4m/s-45.4°C0%0hPa0V00:00:0000:00:0000:00:00
ARGUS22026-08-31 01:00:0727.67872-82.88124264°42km/h30509m-27.0m/s-45.9°C0%0hPa0V00:00:0000:00:0000:00:00
ARGUS22026-08-31 00:59:4727.67919-82.87823265°60km/h31091m-28.7m/s-44.3°C0%0hPa0V00:00:0000:00:0000:00:00
ARGUS22026-08-31 00:59:1227.67951-82.87327241°26km/h32124m-32.7m/s-35.9°C0%0hPa0V00:00:0000:00:0000:00:00
ARGUS22026-08-31 00:58:5127.68164-82.87169225°55km/h32820m-34.8m/s-35.7°C0%0hPa0V00:00:0000:00:0000:00:00
ARGUS22026-08-31 00:58:3027.68433-82.86958239°71km/h33570m-39.8m/s-37.3°C0%0hPa0V00:00:0000:00:0000:00:00
ARGUS22026-08-31 00:58:1027.68594-82.86640271°26km/h34268m-37.2m/s0°C0%0hPa0V00:00:0000:00:0000:00:00
ARGUS22026-08-31 00:57:4427.68642-82.86275290°71km/h35015m6.8m/s-33.5°C0%0hPa0V00:00:0000:00:0000:00:00
ARGUS22026-08-31 00:57:2227.68748-82.86000179°38km/h34886m7.2m/s-33.3°C0%0hPa0V00:00:0000:00:0000:00:00
ARGUS22026-08-31 00:57:0127.68932-82.85744254°97km/h34752m3.3m/s-32.9°C0%0hPa0V00:00:0000:00:0000:00:00
ARGUS22026-08-31 00:56:4027.68997-82.85497152°15km/h34615m4.6m/s-33.2°C0%0hPa0V00:00:0000:00:0000:00:00
ARGUS22026-08-31 00:56:2027.69095-82.85256249°95km/h34480m10.3m/s-33.5°C0%0hPa0V00:00:0000:00:0000:00:00
ARGUS22026-08-31 00:55:5927.69136-82.84949299°13km/h34342m10.0m/s-34.2°C0%0hPa0V00:00:0000:00:0000:00:00
ARGUS22026-08-31 00:55:3827.69223-82.84701203°69km/h34224m4.3m/s-35.5°C0%0hPa0V00:00:0000:00:0000:00:00
ARGUS22026-08-31 00:55:1727.69336-82.84367294°78km/h34104m9.7m/s-36.9°C0%0hPa0V00:00:0000:00:0000:00:00
ARGUS22026-08-31 00:54:5727.69430-82.84083200°46km/h33997m4.0m/s-37.7°C0%0hPa0V00:00:0000:00:0000:00:00
ARGUS22026-08-31 00:54:3727.69607-82.83731263°120km/h33875m2.8m/s-38.5°C0%0hPa0V00:00:0000:00:0000:00:00
ARGUS22026-08-31 00:54:1627.69743-82.83414186°18km/h33770m5.4m/s-39.5°C0%0hPa0V00:00:0000:00:0000:00:00
ARGUS22026-08-31 00:53:5527.69964-82.83182242°82km/h33650m5.3m/s-39.1°C0%0hPa0V00:00:0000:00:0000:00:00
ARGUS22026-08-31 00:53:3427.70139-82.83008165°49km/h33524m2.5m/s-39.5°C0%0hPa0V00:00:0000:00:0000:00:00
ARGUS22026-08-31 00:53:1327.70398-82.82800243°91km/h33383m5.8m/s-39.5°C0%0hPa0V00:00:0000:00:0000:00:00
ARGUS22026-08-31 00:52:5227.70638-82.82608197°44km/h33253m11.4m/s-38.7°C0%0hPa0V00:00:0000:00:0000:00:00
ARGUS22026-08-31 00:52:3127.70891-82.82456189°69km/h33116m1.2m/s-37.6°C0%0hPa0V00:00:0000:00:0000:00:00
ARGUS22026-08-31 00:52:1127.71120-82.82308227°51km/h32985m12.1m/s-36.8°C0%0hPa0V00:00:0000:00:0000:00:00
ARGUS22026-08-31 00:51:5027.71382-82.82156219°66km/h32847m3.2m/s-36.2°C0%0hPa0V00:00:0000:00:0000:00:00
ARGUS22026-08-31 00:51:3027.71620-82.82029177°40km/h32708m12.2m/s-36.2°C0%0hPa0V00:00:0000:00:0000:00:00
ARGUS22026-08-31 00:51:0927.71786-82.81919252°24km/h32577m6.2m/s-36.1°C0%0hPa0V00:00:0000:00:0000:00:00
ARGUS22026-08-31 00:50:4827.71917-82.81764225°82km/h32435m2.4m/s-36.2°C0%0hPa0V00:00:0000:00:0000:00:00
ARGUS22026-08-31 00:50:2827.71977-82.81617348°31km/h32294m7.8m/s-38.6°C0%0hPa0V00:00:0000:00:0000:00:00
ARGUS22026-08-31 00:49:4627.71929-82.81284247°69km/h32042m7.0m/s-40.0°C0%0hPa0V00:00:0000:00:0000:00:00
ARGUS22026-08-31 00:49:2627.71903-82.81013322°44km/h31911m10.7m/s-43.3°C0%0hPa0V00:00:0000:00:0000:00:00
ARGUS22026-08-31 00:49:0527.71862-82.80735291°60km/h31792m4.6m/s-44.3°C0%0hPa0V00:00:0000:00:0000:00:00
ARGUS22026-08-31 00:48:4427.71878-82.80443256°78km/h31674m2.4m/s-44.7°C0%0hPa0V00:00:0000:00:0000:00:00
ARGUS22026-08-31 00:48:2427.71905-82.80119297°46km/h31561m1.5m/s-45.4°C0%0hPa0V00:00:0000:00:0000:00:00
ARGUS22026-08-31 00:48:0327.71955-82.79822232°57km/h31448m3.3m/s-45.5°C0%0hPa0V00:00:0000:00:0000:00:00
ARGUS22026-08-31 00:47:4227.71990-82.79558301°22km/h31336m3.5m/s-45.9°C0%0hPa0V00:00:0000:00:0000:00:00
ARGUS22026-08-31 00:47:2227.72038-82.79269243°73km/h31214m6.3m/s-46.4°C0%0hPa0V00:00:0000:00:0000:00:00
ARGUS22026-08-31 00:47:0127.72123-82.79018266°29km/h31091m8.5m/s-46.9°C0%0hPa0V00:00:0000:00:0000:00:00
ARGUS22026-08-31 00:46:4127.72210-82.78777233°64km/h30950m8.1m/s-46.7°C0%0hPa0V00:00:0000:00:0000:00:00
ARGUS22026-08-31 00:46:2027.72268-82.78574271°40km/h30819m8.2m/s-46.6°C0%0hPa0V00:00:0000:00:0000:00:00
ARGUS22026-08-31 00:45:5727.72292-82.78368232°53km/h30661m4.3m/s-45.8°C0%0hPa0V00:00:0000:00:0000:00:00
ARGUS22026-08-31 00:45:3727.72312-82.78185272°27km/h30522m6.9m/s-45.3°C0%0hPa0V00:00:0000:00:0000:00:00
ARGUS22026-08-31 00:45:1627.72345-82.77991296°33km/h30375m10.6m/s-44.7°C0%0hPa0V00:00:0000:00:0000:00:00
ARGUS22026-08-31 00:44:5627.72358-82.77820248°11km/h30240m7.6m/s-44.5°C0%0hPa0V00:00:0000:00:0000:00:00
ARGUS22026-08-31 00:44:3527.72365-82.77673318°40km/h30097m7.2m/s-44.0°C0%0hPa0V00:00:0000:00:0000:00:00
ARGUS22026-08-31 00:44:1527.72314-82.77570230°33km/h29975m8.6m/s-43.6°C0%0hPa0V00:00:0000:00:0000:00:00
ARGUS22026-08-31 00:43:5527.72276-82.77502322°26km/h29844m7.2m/s-42.7°C0%0hPa0V00:00:0000:00:0000:00:00
ARGUS22026-08-31 00:43:3427.72233-82.7742311°38km/h29711m4.5m/s-42.0°C0%0hPa0V00:00:0000:00:0000:00:00
ARGUS22026-08-31 00:43:1427.72202-82.77328219°26km/h29585m4.0m/s-41.8°C0%0hPa0V00:00:0000:00:0000:00:00
ARGUS22026-08-31 00:42:3127.72063-82.76946267°60km/h29319m3.6m/s-42.4°C0%0hPa0V00:00:0000:00:0000:00:00
ARGUS22026-08-31 00:42:1027.71953-82.76652307°60km/h29186m3.7m/s-43.2°C0%0hPa0V00:00:0000:00:0000:00:00
ARGUS22026-08-31 00:41:5027.71863-82.76278275°78km/h29051m5.2m/s-44.0°C0%0hPa0V00:00:0000:00:0000:00:00
ARGUS22026-08-31 00:41:2727.71721-82.75880295°77km/h28908m7.2m/s-44.1°C0%0hPa0V00:00:0000:00:0000:00:00
ARGUS22026-08-31 00:41:0727.71551-82.75483276°75km/h28773m6.9m/s-43.5°C0%0hPa0V00:00:0000:00:0000:00:00
ARGUS22026-08-31 00:40:4627.71426-82.75062301°71km/h28650m7.9m/s-43.1°C0%0hPa0V00:00:0000:00:0000:00:00
ARGUS22026-08-31 00:40:2527.71330-82.74607262°86km/h28520m7.3m/s-44.0°C0%0hPa0V00:00:0000:00:0000:00:00
ARGUS22026-08-31 00:40:0527.71294-82.74180297°82km/h28393m7.1m/s-45.1°C0%0hPa0V00:00:0000:00:0000:00:00
ARGUS22026-08-31 00:39:4527.71267-82.73681265°89km/h28253m7.1m/s-45.0°C0%0hPa0V00:00:0000:00:0000:00:00
ARGUS22026-08-31 00:39:2427.71305-82.73238244°71km/h28120m4.6m/s-45.4°C0%0hPa0V00:00:0000:00:0000:00:00
ARGUS22026-08-31 00:39:0427.71328-82.72817272°62km/h27986m6.5m/s-45.1°C0%0hPa0V00:00:0000:00:0000:00:00
ARGUS22026-08-31 00:38:4327.71372-82.72384263°80km/h27860m6.7m/s-45.3°C0%0hPa0V00:00:0000:00:0000:00:00
ARGUS22026-08-31 00:38:2227.71408-82.71986256°80km/h27737m7.1m/s-45.3°C0%0hPa0V00:00:0000:00:0000:00:00
ARGUS22026-08-31 00:38:0127.71446-82.71615245°69km/h27619m5.9m/s-46.1°C0%0hPa0V00:00:0000:00:0000:00:00
ARGUS22026-08-31 00:37:4127.71436-82.71268283°64km/h27505m3.5m/s-47.2°C0%0hPa0V00:00:0000:00:0000:00:00
ARGUS22026-08-31 00:37:2027.71393-82.70856294°57km/h27387m4.8m/s-47.7°C0%0hPa0V00:00:0000:00:0000:00:00
ARGUS22026-08-31 00:37:0027.71325-82.70423260°95km/h27279m3.9m/s-47.9°C0%0hPa0V00:00:0000:00:0000:00:00
ARGUS22026-08-31 00:36:4027.71283-82.69947271°82km/h27166m6.2m/s-48.5°C0%0hPa0V00:00:0000:00:0000:00:00
ARGUS22026-08-31 00:36:1927.71259-82.69469282°86km/h27060m5.7m/s-49.1°C0%0hPa0V00:00:0000:00:0000:00:00
ARGUS22026-08-31 00:35:5827.71248-82.69022293°51km/h26944m3.1m/s-49.9°C0%0hPa0V00:00:0000:00:0000:00:00
ARGUS22026-08-31 00:35:3927.71271-82.68623274°69km/h26831m8.0m/s-50.9°C0%0hPa0V00:00:0000:00:0000:00:00
ARGUS22026-08-31 00:35:1827.71292-82.68172272°69km/h26706m6.9m/s-51.4°C0%0hPa0V00:00:0000:00:0000:00:00
ARGUS22026-08-31 00:34:5727.71323-82.67841263°73km/h26589m4.4m/s-51.4°C0%0hPa0V00:00:0000:00:0000:00:00
ARGUS22026-08-31 00:34:3727.71336-82.67557263°55km/h26466m5.9m/s-51.6°C0%0hPa0V00:00:0000:00:0000:00:00
ARGUS22026-08-31 00:34:1727.71331-82.67230260°84km/h26351m9.7m/s-51.4°C0%0hPa0V00:00:0000:00:0000:00:00
ARGUS22026-08-31 00:33:5627.71341-82.66809265°71km/h26233m6.2m/s-52.5°C0%0hPa0V00:00:0000:00:0000:00:00
ARGUS22026-08-31 00:33:3527.71334-82.66349269°78km/h26112m6.3m/s-53.1°C0%0hPa0V00:00:0000:00:0000:00:00
ARGUS22026-08-31 00:33:1427.71326-82.65916275°71km/h25994m6.4m/s-53.7°C0%0hPa0V00:00:0000:00:0000:00:00
ARGUS22026-08-31 00:32:5327.71338-82.65498265°71km/h25867m7.5m/s-53.8°C0%0hPa0V00:00:0000:00:0000:00:00
ARGUS22026-08-31 00:32:3327.71353-82.65068262°91km/h25745m7.0m/s-53.5°C0%0hPa0V00:00:0000:00:0000:00:00
ARGUS22026-08-31 00:32:1227.71396-82.64571273°91km/h25607m7.9m/s-53.2°C0%0hPa0V00:00:0000:00:0000:00:00
ARGUS22026-08-31 00:31:5227.71451-82.64130257°89km/h25473m4.3m/s-53.1°C0%0hPa0V00:00:0000:00:0000:00:00
ARGUS22026-08-31 00:31:3127.71507-82.63689249°47km/h25328m5.6m/s-52.5°C0%0hPa0V00:00:0000:00:0000:00:00
ARGUS22026-08-31 00:31:1127.71538-82.63314267°49km/h25189m7.4m/s-52.6°C0%0hPa0V00:00:0000:00:0000:00:00
ARGUS22026-08-31 00:30:5027.71553-82.62928266°58km/h25046m7.2m/s-52.2°C0%0hPa0V00:00:0000:00:0000:00:00
ARGUS22026-08-31 00:30:3027.71599-82.62524256°55km/h24919m4.4m/s-52.0°C0%0hPa0V00:00:0000:00:0000:00:00
ARGUS22026-08-31 00:30:0927.71633-82.62083261°69km/h24789m6.6m/s-51.9°C0%0hPa0V00:00:0000:00:0000:00:00
ARGUS22026-08-31 00:29:5027.71667-82.61707266°62km/h24679m7.0m/s-53.1°C0%0hPa0V00:00:0000:00:0000:00:00
ARGUS22026-08-31 00:29:2927.71781-82.61365261°51km/h24572m4.4m/s-53.8°C0%0hPa0V00:00:0000:00:0000:00:00
ARGUS22026-08-31 00:29:0827.71882-82.61095243°49km/h24474m5.6m/s-54.8°C0%0hPa0V00:00:0000:00:0000:00:00
ARGUS22026-08-31 00:28:4827.71941-82.60852247°58km/h24364m6.2m/s-55.3°C0%0hPa0V00:00:0000:00:0000:00:00
ARGUS22026-08-31 00:28:2627.71962-82.60557272°62km/h24254m5.4m/s-56.4°C0%0hPa0V00:00:0000:00:0000:00:00
ARGUS22026-08-31 00:28:0927.71959-82.60204274°60km/h24146m5.9m/s-56.2°C0%0hPa0V00:00:0000:00:0000:00:00
ARGUS22026-08-31 00:27:2527.72046-82.59559255°47km/h23915m7.0m/s-55.4°C0%0hPa0V00:00:0000:00:0000:00:00
ARGUS22026-08-31 00:27:0427.72154-82.59338245°31km/h23791m4.9m/s-55.3°C0%0hPa0V00:00:0000:00:0000:00:00
ARGUS22026-08-31 00:26:4427.72212-82.59153274°37km/h23670m7.6m/s-55.5°C0%0hPa0V00:00:0000:00:0000:00:00
ARGUS22026-08-31 00:26:2327.72244-82.58952260°31km/h23553m5.5m/s-55.9°C0%0hPa0V00:00:0000:00:0000:00:00
ARGUS22026-08-31 00:26:0327.72228-82.58732248°26km/h23445m5.5m/s-56.7°C0%0hPa0V00:00:0000:00:0000:00:00
ARGUS22026-08-31 00:25:4327.72257-82.58443267°47km/h23338m7.3m/s-57.5°C0%0hPa0V00:00:0000:00:0000:00:00
ARGUS22026-08-31 00:25:2227.72299-82.58192266°40km/h23231m6.7m/s-57.0°C0%0hPa0V00:00:0000:00:0000:00:00
ARGUS22026-08-31 00:24:4127.72394-82.57679257°46km/h23009m6.7m/s-56.0°C0%0hPa0V00:00:0000:00:0000:00:00
ARGUS22026-08-31 00:24:2127.72468-82.57398237°55km/h22892m7.0m/s-55.9°C0%0hPa0V00:00:0000:00:0000:00:00
ARGUS22026-08-31 00:24:0027.72562-82.57128258°60km/h22784m5.3m/s-55.6°C0%0hPa0V00:00:0000:00:0000:00:00
ARGUS22026-08-31 00:23:4027.72624-82.56845252°68km/h22665m6.2m/s-55.8°C0%0hPa0V00:00:0000:00:0000:00:00
ARGUS22026-08-31 00:23:1927.72664-82.56589265°35km/h22552m5.5m/s-56.1°C0%0hPa0V00:00:0000:00:0000:00:00
ARGUS22026-08-31 00:22:5827.72697-82.56368254°38km/h22444m5.3m/s-56.0°C0%0hPa0V00:00:0000:00:0000:00:00
ARGUS22026-08-31 00:22:3727.72737-82.56123297°46km/h22330m6.5m/s-56.2°C0%0hPa0V00:00:0000:00:0000:00:00
ARGUS22026-08-31 00:22:1727.72740-82.55903274°49km/h22225m5.2m/s-56.8°C0%0hPa0V00:00:0000:00:0000:00:00
ARGUS22026-08-31 00:21:5727.72796-82.55653240°29km/h22113m5.0m/s-56.7°C0%0hPa0V00:00:0000:00:0000:00:00
ARGUS22026-08-31 00:21:3627.72860-82.55426246°46km/h22006m5.0m/s-56.9°C0%0hPa0V00:00:0000:00:0000:00:00
ARGUS22026-08-31 00:20:5527.73004-82.54926256°69km/h21793m3.5m/s-58.4°C0%0hPa0V00:00:0000:00:0000:00:00
ARGUS22026-08-31 00:20:3527.73022-82.54668272°46km/h21688m5.5m/s-59.3°C0%0hPa0V00:00:0000:00:0000:00:00
ARGUS22026-08-31 00:20:1427.73030-82.54362271°46km/h21587m4.6m/s-59.2°C0%0hPa0V00:00:0000:00:0000:00:00
ARGUS22026-08-31 00:19:5427.73065-82.54040258°55km/h21477m4.9m/s-60.3°C0%0hPa0V00:00:0000:00:0000:00:00
ARGUS22026-08-31 00:19:3327.73087-82.53713263°62km/h21370m4.4m/s-61.0°C0%0hPa0V00:00:0000:00:0000:00:00
ARGUS22026-08-31 00:19:1327.73168-82.53357264°53km/h21254m6.4m/s-60.7°C0%0hPa0V00:00:0000:00:0000:00:00
ARGUS22026-08-31 00:18:5227.73282-82.53086250°53km/h21149m4.7m/s-61.9°C0%0hPa0V00:00:0000:00:0000:00:00
ARGUS22026-08-31 00:18:3227.73449-82.52828230°60km/h21031m5.6m/s-61.5°C0%0hPa0V00:00:0000:00:0000:00:00
ARGUS22026-08-31 00:18:1027.73612-82.52596234°55km/h20915m4.3m/s-61.4°C0%0hPa0V00:00:0000:00:0000:00:00
ARGUS22026-08-31 00:17:5027.73730-82.52397238°40km/h20811m6.6m/s-61.6°C0%0hPa0V00:00:0000:00:0000:00:00
ARGUS22026-08-31 00:17:2927.73827-82.52212245°37km/h20691m7.2m/s-61.7°C0%0hPa0V00:00:0000:00:0000:00:00
ARGUS22026-08-31 00:17:0927.73895-82.52059249°18km/h20579m5.6m/s-62.7°C0%0hPa0V00:00:0000:00:0000:00:00
ARGUS22026-08-31 00:16:4927.73928-82.51926267°35km/h20463m5.6m/s-63.8°C0%0hPa0V00:00:0000:00:0000:00:00
ARGUS22026-08-31 00:16:2827.73951-82.51789245°26km/h20350m6.0m/s-64.8°C0%0hPa0V00:00:0000:00:0000:00:00
ARGUS22026-08-31 00:16:0827.73971-82.51653280°24km/h20231m7.2m/s-64.1°C0%0hPa0V00:00:0000:00:0000:00:00
ARGUS22026-08-31 00:15:4727.73958-82.51497298°20km/h20119m5.7m/s-63.9°C0%0hPa0V00:00:0000:00:0000:00:00
ARGUS22026-08-31 00:15:2727.73919-82.51299279°40km/h20005m5.8m/s-63.8°C0%0hPa0V00:00:0000:00:0000:00:00
ARGUS22026-08-31 00:15:0627.73862-82.51059292°37km/h19898m4.4m/s-64.1°C0%0hPa0V00:00:0000:00:0000:00:00
ARGUS22026-08-31 00:14:4627.73818-82.50768282°68km/h19779m6.2m/s-63.4°C0%0hPa0V00:00:0000:00:0000:00:00
ARGUS22026-08-31 00:14:2527.73847-82.50467252°64km/h19661m5.5m/s-62.6°C0%0hPa0V00:00:0000:00:0000:00:00
ARGUS22026-08-31 00:14:0527.73932-82.50135249°58km/h19547m4.9m/s-62.1°C0%0hPa0V00:00:0000:00:0000:00:00
ARGUS22026-08-31 00:13:4427.74045-82.49833243°51km/h19444m5.3m/s-62.2°C0%0hPa0V00:00:0000:00:0000:00:00
ARGUS22026-08-31 00:13:2427.74202-82.49535243°53km/h19336m4.2m/s-63.5°C0%0hPa0V00:00:0000:00:0000:00:00
ARGUS22026-08-31 00:13:0227.74313-82.49308229°33km/h19219m5.6m/s-64.6°C0%0hPa0V00:00:0000:00:0000:00:00
ARGUS22026-08-31 00:12:4227.74364-82.49157272°22km/h19122m4.3m/s-64.5°C0%0hPa0V00:00:0000:00:0000:00:00
ARGUS22026-08-31 00:12:0127.74270-82.48933307°35km/h18909m6.3m/s-65.2°C0%0hPa0V00:00:0000:00:0000:00:00
ARGUS22026-08-31 00:11:4027.74186-82.48753309°33km/h18801m6.2m/s-65.8°C0%0hPa0V00:00:0000:00:0000:00:00
ARGUS22026-08-31 00:11:2027.74068-82.48543294°53km/h18695m7.0m/s-65.1°C0%0hPa0V00:00:0000:00:0000:00:00
ARGUS22026-08-31 00:11:0027.73995-82.48300292°37km/h18583m6.4m/s-64.5°C0%0hPa0V00:00:0000:00:0000:00:00
ARGUS22026-08-31 00:10:3927.73962-82.48096264°37km/h18476m4.4m/s-64.5°C0%0hPa0V00:00:0000:00:0000:00:00
ARGUS22026-08-31 00:09:5827.73994-82.47828267°11km/h18264m4.4m/s-64.9°C0%0hPa0V00:00:0000:00:0000:00:00
ARGUS22026-08-31 00:09:3727.73982-82.47721297°15km/h18167m4.3m/s-65.5°C0%0hPa0V00:00:0000:00:0000:00:00
ARGUS22026-08-31 00:09:1727.73970-82.47662296°11km/h18071m6.2m/s-66.2°C0%0hPa0V00:00:0000:00:0000:00:00
ARGUS22026-08-31 00:08:5727.73938-82.47567287°20km/h17966m5.2m/s-68.2°C0%0hPa0V00:00:0000:00:0000:00:00
ARGUS22026-08-31 00:08:3627.73942-82.47510287°7km/h17871m5.7m/s-68.5°C0%0hPa0V00:00:0000:00:0000:00:00
ARGUS22026-08-31 00:08:1627.73945-82.47499353°11km/h17772m6.1m/s-69.2°C0%0hPa0V00:00:0000:00:0000:00:00
ARGUS22026-08-31 00:07:5427.73918-82.47507301°9km/h17675m4.5m/s-69.3°C0%0hPa0V00:00:0000:00:0000:00:00
ARGUS22026-08-31 00:07:3427.73899-82.47475301°13km/h17585m3.7m/s-69.3°C0%0hPa0V00:00:0000:00:0000:00:00
ARGUS22026-08-31 00:07:1327.73844-82.47394293°20km/h17488m4.4m/s-69.4°C0%0hPa0V00:00:0000:00:0000:00:00
ARGUS22026-08-31 00:06:5327.73817-82.47293310°18km/h17402m4.5m/s-69.3°C0%0hPa0V00:00:0000:00:0000:00:00
ARGUS22026-08-31 00:06:1227.73803-82.47130304°7km/h17227m5.4m/s-68.7°C0%0hPa0V00:00:0000:00:0000:00:00
ARGUS22026-08-31 00:05:5127.73812-82.47090197°15km/h17132m3.3m/s-68.7°C0%0hPa0V00:00:0000:00:0000:00:00
ARGUS22026-08-31 00:05:3127.73866-82.47107136°29km/h17040m2.9m/s-68.6°C0%0hPa0V00:00:0000:00:0000:00:00
ARGUS22026-08-31 00:05:1127.73977-82.47099167°20km/h16936m6.2m/s-68.9°C0%0hPa0V00:00:0000:00:0000:00:00
ARGUS22026-08-31 00:04:5027.74099-82.47111165°16km/h16836m5.1m/s-68.5°C0%0hPa0V00:00:0000:00:0000:00:00
ARGUS22026-08-31 00:04:3027.74212-82.47133181°31km/h16740m4.6m/s-68.0°C0%0hPa0V00:00:0000:00:0000:00:00
ARGUS22026-08-31 00:04:1027.74306-82.47185142°22km/h16646m5.0m/s-67.3°C0%0hPa0V00:00:0000:00:0000:00:00
ARGUS22026-08-31 00:03:4927.74397-82.47256138°24km/h16546m3.4m/s-66.9°C0%0hPa0V00:00:0000:00:0000:00:00
ARGUS22026-08-31 00:03:3127.74464-82.4735584°22km/h16449m6.1m/s-66.7°C0%0hPa0V00:00:0000:00:0000:00:00
ARGUS22026-08-31 00:03:1027.74470-82.47428139°11km/h16355m6.0m/s-66.4°C0%0hPa0V00:00:0000:00:0000:00:00
ARGUS22026-08-31 00:02:3727.74432-82.47523357°13km/h16081m4.9m/s-65.4°C0%0hPa0V00:00:0000:00:0000:00:00
ARGUS22026-08-31 00:02:1027.74371-82.4752322°22km/h15988m3.4m/s-65.0°C0%0hPa0V00:00:0000:00:0000:00:00
ARGUS22026-08-31 00:01:3627.74306-82.4754312°20km/h15892m3.5m/s-64.7°C0%0hPa0V00:00:0000:00:0000:00:00
ARGUS22026-08-31 00:01:1127.74245-82.4758329°29km/h15801m3.8m/s-64.4°C0%0hPa0V00:00:0000:00:0000:00:00
ARGUS22026-08-31 00:00:4527.74172-82.4761695°13km/h15703m5.7m/s-63.8°C0%0hPa0V00:00:0000:00:0000:00:00
ARGUS22026-08-31 00:00:2727.74112-82.47620312°24km/h15602m5.4m/s-65.1°C0%0hPa0V00:00:0000:00:0000:00:00
ARGUS22026-08-30 23:59:4227.74014-82.47483325°20km/h15413m4.5m/s-67.5°C0%0hPa0V00:00:0000:00:0000:00:00
ARGUS22026-08-30 23:59:2127.73948-82.47400316°18km/h15317m4.1m/s-67.9°C0%0hPa0V00:00:0000:00:0000:00:00
ARGUS22026-08-30 23:59:0127.73858-82.47296294°38km/h15210m3.8m/s-68.6°C0%0hPa0V00:00:0000:00:0000:00:00
ARGUS22026-08-30 23:58:4127.73755-82.47138306°29km/h15115m5.6m/s-68.4°C0%0hPa0V00:00:0000:00:0000:00:00
ARGUS22026-08-30 23:58:2027.73684-82.46999288°26km/h15025m3.5m/s-68.3°C0%0hPa0V00:00:0000:00:0000:00:00
ARGUS22026-08-30 23:58:0027.73632-82.46873271°24km/h14932m3.6m/s-68.8°C0%0hPa0V00:00:0000:00:0000:00:00
ARGUS22026-08-30 23:57:3827.73605-82.46770286°20km/h14838m4.0m/s-68.8°C0%0hPa0V00:00:0000:00:0000:00:00
ARGUS22026-08-30 23:57:1827.73604-82.46686279°9km/h14749m4.1m/s-68.3°C0%0hPa0V00:00:0000:00:0000:00:00
ARGUS22026-08-30 23:56:5727.73592-82.4658227°9km/h14659m6.4m/s-67.9°C0%0hPa0V00:00:0000:00:0000:00:00
ARGUS22026-08-30 23:56:3727.73592-82.465110km/h14544m5.2m/s-67.4°C0%0hPa0V00:00:0000:00:0000:00:00
ARGUS22026-08-30 23:56:1727.73610-82.46449266°29km/h14455m3.1m/s-66.9°C0%0hPa0V00:00:0000:00:0000:00:00
ARGUS22026-08-30 23:55:5627.73620-82.46367267°27km/h14370m4.5m/s-66.2°C0%0hPa0V00:00:0000:00:0000:00:00
ARGUS22026-08-30 23:55:3627.73625-82.46281290°16km/h14282m4.1m/s-66.1°C0%0hPa0V00:00:0000:00:0000:00:00
ARGUS22026-08-30 23:55:1527.73597-82.46233291°11km/h14192m5.2m/s-65.7°C0%0hPa0V00:00:0000:00:0000:00:00
ARGUS22026-08-30 23:54:5427.73565-82.46221338°13km/h14102m4.1m/s-65.1°C0%0hPa0V00:00:0000:00:0000:00:00
ARGUS22026-08-30 23:54:3427.73511-82.4622414°16km/h14013m3.1m/s-64.7°C0%0hPa0V00:00:0000:00:0000:00:00
ARGUS22026-08-30 23:54:1427.73427-82.4623134°16km/h13919m5.0m/s-63.9°C0%0hPa0V00:00:0000:00:0000:00:00
ARGUS22026-08-30 23:53:5327.73336-82.46250358°27km/h13827m4.6m/s-63.3°C0%0hPa0V00:00:0000:00:0000:00:00
ARGUS22026-08-30 23:53:3327.73255-82.46256327°18km/h13732m6.8m/s-62.5°C0%0hPa0V00:00:0000:00:0000:00:00
ARGUS22026-08-30 23:53:1227.73180-82.46252353°42km/h13632m4.4m/s-61.6°C0%0hPa0V00:00:0000:00:0000:00:00
ARGUS22026-08-30 23:52:5227.73121-82.46237258°7km/h13519m5.3m/s-60.7°C0%0hPa0V00:00:0000:00:0000:00:00
ARGUS22026-08-30 23:52:3027.73110-82.46243278°11km/h13419m5.0m/s-60.0°C0%0hPa0V00:00:0000:00:0000:00:00
ARGUS22026-08-30 23:52:1027.73099-82.4626880°18km/h13326m4.6m/s-59.3°C0%0hPa0V00:00:0000:00:0000:00:00
ARGUS22026-08-30 23:51:5027.73127-82.4630183°5km/h13227m5.3m/s-58.5°C0%0hPa0V00:00:0000:00:0000:00:00
ARGUS22026-08-30 23:51:2927.73146-82.46320116°5km/h13139m4.3m/s-57.8°C0%0hPa0V00:00:0000:00:0000:00:00
ARGUS22026-08-30 23:51:0927.73166-82.46345187°9km/h13045m4.0m/s-57.1°C0%0hPa0V00:00:0000:00:0000:00:00
ARGUS22026-08-30 23:50:4827.73182-82.46361149°7km/h12962m4.6m/s-56.4°C0%0hPa0V00:00:0000:00:0000:00:00
ARGUS22026-08-30 23:50:2827.73196-82.46380167°11km/h12871m2.5m/s-55.7°C0%0hPa0V00:00:0000:00:0000:00:00
ARGUS22026-08-30 23:50:0727.73193-82.4641297°9km/h12784m4.9m/s-54.9°C0%0hPa0V00:00:0000:00:0000:00:00
ARGUS22026-08-30 23:49:2627.73171-82.46468354°5km/h12600m4.6m/s-53.4°C0%0hPa0V00:00:0000:00:0000:00:00
ARGUS22026-08-30 23:49:0627.73138-82.46486134°9km/h12509m3.1m/s-52.8°C0%0hPa0V00:00:0000:00:0000:00:00
ARGUS22026-08-30 23:48:4627.73101-82.4649654°9km/h12420m3.3m/s-52.0°C0%0hPa0V00:00:0000:00:0000:00:00
ARGUS22026-08-30 23:48:2527.73071-82.4649819°9km/h12330m3.3m/s-51.2°C0%0hPa0V00:00:0000:00:0000:00:00
ARGUS22026-08-30 23:48:0427.73049-82.46499337°4km/h12241m4.0m/s-50.5°C0%0hPa0V00:00:0000:00:0000:00:00
ARGUS22026-08-30 23:47:4427.73027-82.4650467°11km/h12151m3.8m/s-49.9°C0%0hPa0V00:00:0000:00:0000:00:00
ARGUS22026-08-30 23:47:2327.73016-82.4653851°9km/h12063m3.3m/s-49.2°C0%0hPa0V00:00:0000:00:0000:00:00
ARGUS22026-08-30 23:47:0227.73018-82.4655183°7km/h11975m4.2m/s-48.5°C0%0hPa0V00:00:0000:00:0000:00:00
ARGUS22026-08-30 23:46:4127.73012-82.46561254°4km/h11884m5.1m/s-47.7°C0%0hPa0V00:00:0000:00:0000:00:00
ARGUS22026-08-30 23:46:2127.73014-82.46586127°5km/h11798m4.8m/s-46.9°C0%0hPa0V00:00:0000:00:0000:00:00
ARGUS22026-08-30 23:46:0127.73020-82.4661284°16km/h11702m5.0m/s-46.1°C0%0hPa0V00:00:0000:00:0000:00:00
ARGUS22026-08-30 23:45:4027.73023-82.46622172°5km/h11617m3.0m/s-45.4°C0%0hPa0V00:00:0000:00:0000:00:00
ARGUS22026-08-30 23:45:2027.73031-82.46644273°5km/h11524m4.8m/s-44.6°C0%0hPa0V00:00:0000:00:0000:00:00
ARGUS22026-08-30 23:44:5927.73038-82.46647331°4km/h11438m5.2m/s-43.8°C0%0hPa0V00:00:0000:00:0000:00:00
ARGUS22026-08-30 23:44:3927.73025-82.466610km/h11340m3.9m/s-43.0°C0%0hPa0V00:00:0000:00:0000:00:00
ARGUS22026-08-30 23:44:1827.73020-82.46665335°7km/h11251m4.7m/s-42.3°C0%0hPa0V00:00:0000:00:0000:00:00
ARGUS22026-08-30 23:43:5827.72993-82.46655197°5km/h11150m5.8m/s-41.3°C0%0hPa0V00:00:0000:00:0000:00:00
ARGUS22026-08-30 23:43:3727.72990-82.46645301°7km/h11054m5.8m/s-40.5°C0%0hPa0V00:00:0000:00:0000:00:00
ARGUS22026-08-30 23:43:1727.72973-82.46638278°4km/h10952m4.9m/s-39.7°C0%0hPa0V00:00:0000:00:0000:00:00
ARGUS22026-08-30 23:42:5627.72946-82.4663184°7km/h10852m3.6m/s-38.8°C0%0hPa0V00:00:0000:00:0000:00:00
ARGUS22026-08-30 23:42:3627.72929-82.4662310°16km/h10746m4.5m/s-37.9°C0%0hPa0V00:00:0000:00:0000:00:00
ARGUS22026-08-30 23:42:1527.72890-82.46607283°15km/h10646m5.6m/s-37.1°C0%0hPa0V00:00:0000:00:0000:00:00
ARGUS22026-08-30 23:41:5427.72868-82.46592346°15km/h10544m5.0m/s-36.4°C0%0hPa0V00:00:0000:00:0000:00:00
ARGUS22026-08-30 23:41:3427.72826-82.46541301°22km/h10439m3.8m/s-35.6°C0%0hPa0V00:00:0000:00:0000:00:00
ARGUS22026-08-30 23:41:1327.72785-82.46491290°11km/h10340m6.1m/s-34.8°C0%0hPa0V00:00:0000:00:0000:00:00
ARGUS22026-08-30 23:40:5327.72763-82.46437317°9km/h10232m4.5m/s-33.9°C0%0hPa0V00:00:0000:00:0000:00:00
ARGUS22026-08-30 23:40:3227.72751-82.46364285°13km/h10129m4.8m/s-33.2°C0%0hPa0V00:00:0000:00:0000:00:00
ARGUS22026-08-30 23:40:1127.72740-82.46309247°5km/h10021m6.6m/s-32.4°C0%0hPa0V00:00:0000:00:0000:00:00
ARGUS22026-08-30 23:39:4927.72724-82.462610km/h9904m4.2m/s-31.5°C0%0hPa0V00:00:0000:00:0000:00:00
ARGUS22026-08-30 23:39:2727.72689-82.46205344°11km/h9787m5.5m/s-30.6°C0%0hPa0V00:00:0000:00:0000:00:00
ARGUS22026-08-30 23:39:0627.72653-82.46136286°26km/h9686m5.2m/s-29.8°C0%0hPa0V00:00:0000:00:0000:00:00
ARGUS22026-08-30 23:38:4627.72625-82.46047287°31km/h9582m5.9m/s-29.2°C0%0hPa0V00:00:0000:00:0000:00:00
ARGUS22026-08-30 23:38:2627.72583-82.45928274°15km/h9478m4.6m/s-28.5°C0%0hPa0V00:00:0000:00:0000:00:00
ARGUS22026-08-30 23:38:0427.72547-82.45787277°29km/h9374m4.3m/s-27.7°C0%0hPa0V00:00:0000:00:0000:00:00
ARGUS22026-08-30 23:37:4427.72515-82.45631280°13km/h9268m4.9m/s-27.0°C0%0hPa0V00:00:0000:00:0000:00:00
ARGUS22026-08-30 23:37:2427.72497-82.45501265°27km/h9163m6.0m/s-26.2°C0%0hPa0V00:00:0000:00:0000:00:00
ARGUS22026-08-30 23:37:0327.72498-82.45370237°20km/h9055m6.6m/s-25.4°C0%0hPa0V00:00:0000:00:0000:00:00
ARGUS22026-08-30 23:36:4327.72492-82.45250288°16km/h8944m6.4m/s-24.7°C0%0hPa0V00:00:0000:00:0000:00:00
ARGUS22026-08-30 23:36:2227.72466-82.45141306°20km/h8836m4.2m/s-23.9°C0%0hPa0V00:00:0000:00:0000:00:00
ARGUS22026-08-30 23:35:4127.72467-82.44942258°29km/h8633m3.3m/s-22.5°C0%0hPa0V00:00:0000:00:0000:00:00
ARGUS22026-08-30 23:35:1927.72486-82.44846258°7km/h8518m5.6m/s-21.7°C0%0hPa0V00:00:0000:00:0000:00:00
ARGUS22026-08-30 23:34:5827.72503-82.44759274°16km/h8415m4.2m/s-21.1°C0%0hPa0V00:00:0000:00:0000:00:00
ARGUS22026-08-30 23:34:3827.72524-82.44653260°5km/h8317m6.1m/s-20.6°C0%0hPa0V00:00:0000:00:0000:00:00
ARGUS22026-08-30 23:34:1727.72526-82.44570272°24km/h8222m4.9m/s-20.0°C0%0hPa0V00:00:0000:00:0000:00:00
ARGUS22026-08-30 23:33:5727.72546-82.44488310°13km/h8128m4.4m/s-19.3°C0%0hPa0V00:00:0000:00:0000:00:00
ARGUS22026-08-30 23:33:3627.72531-82.44389297°11km/h8028m4.1m/s-18.5°C0%0hPa0V00:00:0000:00:0000:00:00
ARGUS22026-08-30 23:33:1627.72499-82.44263316°13km/h7925m4.5m/s-17.8°C0%0hPa0V00:00:0000:00:0000:00:00
ARGUS22026-08-30 23:32:5527.72486-82.44118248°22km/h7822m6.4m/s-17.2°C0%0hPa0V00:00:0000:00:0000:00:00
ARGUS22026-08-30 23:32:3427.72455-82.43994288°9km/h7721m7.5m/s-16.5°C0%0hPa0V00:00:0000:00:0000:00:00
ARGUS22026-08-30 23:32:1427.72433-82.43861274°37km/h7610m5.1m/s-15.9°C0%0hPa0V00:00:0000:00:0000:00:00
ARGUS22026-08-30 23:31:5227.72404-82.43689312°20km/h7496m6.3m/s-15.2°C0%0hPa0V00:00:0000:00:0000:00:00
ARGUS22026-08-30 23:31:3127.72377-82.43584254°18km/h7389m7.2m/s-14.5°C0%0hPa0V00:00:0000:00:0000:00:00
ARGUS22026-08-30 23:31:1127.72353-82.43431265°18km/h7270m7.8m/s-13.8°C0%0hPa0V00:00:0000:00:0000:00:00
ARGUS22026-08-30 23:30:4927.72299-82.43337268°22km/h7148m6.4m/s-13.1°C0%0hPa0V00:00:0000:00:0000:00:00
ARGUS22026-08-30 23:30:2927.72292-82.43222238°29km/h7035m5.9m/s-12.4°C0%0hPa0V00:00:0000:00:0000:00:00
ARGUS22026-08-30 23:30:0827.72298-82.43134260°22km/h6903m6.3m/s-11.6°C0%0hPa0V00:00:0000:00:0000:00:00
ARGUS22026-08-30 23:29:4827.72351-82.43049267°15km/h6789m8.3m/s-11.1°C0%0hPa0V00:00:0000:00:0000:00:00
ARGUS22026-08-30 23:29:2827.72364-82.42952203°18km/h6664m5.7m/s-10.4°C0%0hPa0V00:00:0000:00:0000:00:00
ARGUS22026-08-30 23:29:0727.72363-82.42885244°7km/h6552m4.4m/s-10.0°C0%0hPa0V00:00:0000:00:0000:00:00
ARGUS22026-08-30 23:28:4627.72360-82.42789217°20km/h6434m6.4m/s-9.0°C0%0hPa0V00:00:0000:00:0000:00:00
ARGUS22026-08-30 23:28:2627.72363-82.42751259°27km/h6317m5.8m/s-8.3°C0%0hPa0V00:00:0000:00:0000:00:00
ARGUS22026-08-30 23:28:0627.72376-82.42706173°15km/h6201m4.9m/s-7.7°C0%0hPa0V00:00:0000:00:0000:00:00
ARGUS22026-08-30 23:27:4527.72373-82.42698232°20km/h6090m5.2m/s-7.1°C0%0hPa0V00:00:0000:00:0000:00:00
ARGUS22026-08-30 23:27:2527.72386-82.42646108°13km/h5968m6.0m/s-6.4°C0%0hPa0V00:00:0000:00:0000:00:00
ARGUS22026-08-30 23:27:0427.72360-82.42603346°20km/h5853m6.0m/s-5.9°C0%0hPa0V00:00:0000:00:0000:00:00
ARGUS22026-08-30 23:26:4427.72336-82.42625331°15km/h5736m5.0m/s-5.5°C0%0hPa0V00:00:0000:00:0000:00:00
ARGUS22026-08-30 23:26:2227.72349-82.4263695°13km/h5616m4.5m/s-5.1°C0%0hPa0V00:00:0000:00:0000:00:00
ARGUS22026-08-30 23:26:0127.72337-82.4266962°24km/h5492m5.2m/s-4.5°C0%0hPa0V00:00:0000:00:0000:00:00
ARGUS22026-08-30 23:25:4027.72305-82.42715329°24km/h5381m6.2m/s-4.0°C0%0hPa0V00:00:0000:00:0000:00:00
ARGUS22026-08-30 23:25:2027.72279-82.4273037°22km/h5261m6.7m/s-3.4°C0%0hPa0V00:00:0000:00:0000:00:00
ARGUS22026-08-30 23:24:5827.72215-82.42746265°16km/h5151m5.9m/s-2.8°C0%0hPa0V00:00:0000:00:0000:00:00
ARGUS22026-08-30 23:24:3827.72159-82.4270620°18km/h5046m5.4m/s-2.0°C0%0hPa0V00:00:0000:00:0000:00:00
ARGUS22026-08-30 23:24:1727.72108-82.42726207°11km/h4933m4.6m/s-1.2°C0%0hPa0V00:00:0000:00:0000:00:00
ARGUS22026-08-30 23:23:5627.72049-82.4269455°11km/h4827m4.3m/s-0.7°C0%0hPa0V00:00:0000:00:0000:00:00
ARGUS22026-08-30 23:21:4427.72020-82.42808324°7km/h4146m7.2m/s2.4°C0%0hPa0V00:00:0000:00:0000:00:00
ARGUS22026-08-30 23:21:0827.72003-82.42848241°9km/h3953m6.4m/s4.0°C0%0hPa0V00:00:0000:00:0000:00:00
ARGUS22026-08-30 23:20:4527.72020-82.4281515°13km/h3832m6.2m/s4.8°C0%0hPa0V00:00:0000:00:0000:00:00
ARGUS22026-08-30 23:20:2527.71992-82.42840129°9km/h3729m3.9m/s5.6°C0%0hPa0V00:00:0000:00:0000:00:00
ARGUS22026-08-30 23:20:0427.71967-82.42865275°11km/h3615m5.9m/s6.6°C0%0hPa0V00:00:0000:00:0000:00:00
ARGUS22026-08-30 23:19:2227.71899-82.42837185°5km/h3404m3.3m/s8.3°C0%0hPa0V00:00:0000:00:0000:00:00
ARGUS22026-08-30 23:18:4127.71855-82.42798235°16km/h3201m6.5m/s9.1°C0%0hPa0V00:00:0000:00:0000:00:00
ARGUS22026-08-30 23:18:2027.71845-82.42726234°20km/h3085m6.9m/s9.9°C0%0hPa0V00:00:0000:00:0000:00:00
ARGUS22026-08-30 23:17:4327.71856-82.42482312°26km/h2896m3.7m/s10.8°C0%0hPa0V00:00:0000:00:0000:00:00
ARGUS22026-08-30 23:17:0627.71860-82.42210270°40km/h2692m4.8m/s11.5°C0%0hPa0V00:00:0000:00:0000:00:00
ARGUS22026-08-30 23:16:4127.71858-82.42028285°38km/h2572m5.6m/s12.4°C0%0hPa0V00:00:0000:00:0000:00:00
ARGUS22026-08-30 23:16:1127.71881-82.41833251°16km/h2399m3.8m/s13.2°C0%0hPa0V00:00:0000:00:0000:00:00
ARGUS22026-08-30 23:15:2427.71833-82.41475264°37km/h2151m3.8m/s14.9°C0%0hPa0V00:00:0000:00:0000:00:00
ARGUS22026-08-30 23:14:5927.71814-82.41273261°29km/h2009m3.8m/s15.8°C0%0hPa0V00:00:0000:00:0000:00:00
ARGUS22026-08-30 23:14:3927.71779-82.41103273°27km/h1899m6.1m/s16.7°C0%0hPa0V00:00:0000:00:0000:00:00
ARGUS22026-08-30 23:14:1927.71704-82.40976307°38km/h1772m3.8m/s17.4°C0%0hPa0V00:00:0000:00:0000:00:00
ARGUS22026-08-30 23:13:5727.71656-82.40797290°38km/h1659m5.8m/s17.7°C0%0hPa0V00:00:0000:00:0000:00:00


GPX KML Map

© wettersonde.net (DO2JMG) - 2026  -  -